Etusivu
METAR-TAF:

METAR-TAF

Lentoasemat :

Sault Ste. Marie Municipal Airport (Sanderson Field)

Sault Ste. Marie, Michigan, Yhdysvallat

Leveyspiiri: 46-28-46N, Pituuspiiri: 084-21-26W, korkeus merenpinnasta: 210 m

Tämänhetkinen sää

Tämä raportti tehtiin 56 minuuttia sitten, kello 06.55 UTC
Tuuli 5 kn idästä
Lämpötila -12°C
Kosteus 78%
Ilmanpaine 1025 hPa
Näkyvyys: 11.3 km
Pilvistä 1700 ft:n korkeudessa

METAR: KANJ 130655Z AUTO 08005KT 7SM OVC017 M12/M15 A3026 RMK AO2 SNE54 SLP262 P0000 T11221150

Aika: 02:51 (07:51 UTC)


TAF: puuttuu

Säähavainnot ja -ennusteet yli 4000 lentoasemalta (METAR- ja TAF-raportit).

Käytössä olevat sääasemat on merkitty karttaan keltaisilla ja punaisilla pisteillä.

Aseta hiiri pisteen päälle nähdäksesi sääaseman nimen.

Klikkaa sitten nähdäksesi säähavainnot ja -ennusteet.

Kartan vaihtaminen: klikkaa mustalla rastilla varustettuja vihreitä pisteitä, niin voit zoomata sisään; viivalla varustettua vihreää pistettä, niin voit zoomata ulos tai vihreitä nuolia, niin pääset viereisille kartoille.


METAR-TAF: